createdAt,value
2018-07-28T00:00:50.201Z,5.07
2018-07-28T00:03:18.513Z,4.17
2018-07-28T00:05:47.200Z,4.60
2018-07-28T00:08:15.645Z,3.77
2018-07-28T00:10:44.113Z,7.47
2018-07-28T00:13:12.554Z,6.83
2018-07-28T00:15:40.981Z,4.50
2018-07-28T00:18:09.556Z,4.20
2018-07-28T00:20:38.106Z,10.47
2018-07-28T00:23:06.796Z,5.60
2018-07-28T00:25:38.634Z,4.27
2018-07-28T00:28:07.765Z,5.13
2018-07-28T00:30:36.196Z,4.37
2018-07-28T00:33:04.618Z,5.30
2018-07-28T00:35:33.063Z,3.20
2018-07-28T00:38:01.665Z,4.80
2018-07-28T00:40:30.186Z,3.70
2018-07-28T00:42:58.703Z,4.00
2018-07-28T00:45:27.091Z,4.67
2018-07-28T00:47:55.445Z,3.60
2018-07-28T00:50:23.877Z,4.67
2018-07-28T00:52:52.523Z,4.53
2018-07-28T00:55:20.945Z,4.80
2018-07-28T00:57:49.337Z,7.23
2018-07-28T01:00:17.774Z,6.80
2018-07-28T01:02:46.194Z,3.87
2018-07-28T01:05:14.636Z,4.97
2018-07-28T01:07:43.597Z,3.47
2018-07-28T01:10:12.003Z,4.33
2018-07-28T01:12:40.473Z,3.90
2018-07-28T01:15:10.439Z,7.50
2018-07-28T01:17:39.047Z,3.57
2018-07-28T01:20:08.469Z,4.17
2018-07-28T01:22:37.461Z,5.13
2018-07-28T01:25:07.078Z,4.30
2018-07-28T01:27:35.539Z,9.43
2018-07-28T01:30:05.220Z,3.97
2018-07-28T01:32:33.571Z,4.47
2018-07-28T01:35:01.965Z,4.10
2018-07-28T01:37:30.441Z,4.17
2018-07-28T01:39:58.969Z,3.93
2018-07-28T01:42:27.452Z,3.97
2018-07-28T01:44:55.946Z,4.17
2018-07-28T01:47:24.309Z,6.03
2018-07-28T01:49:52.858Z,3.97
2018-07-28T01:52:21.193Z,3.00
2018-07-28T01:54:49.323Z,3.97
2018-07-28T01:57:17.902Z,8.27
2018-07-28T01:59:46.316Z,15.83
2018-07-28T02:02:14.940Z,6.33
2018-07-28T02:04:43.624Z,7.63
2018-07-28T02:07:12.098Z,4.53
2018-07-28T02:09:40.610Z,10.13
2018-07-28T02:12:09.037Z,5.20
2018-07-28T02:14:37.400Z,3.70
2018-07-28T02:17:05.776Z,4.70
2018-07-28T02:19:34.187Z,3.73
2018-07-28T02:22:02.704Z,5.50
2018-07-28T02:24:31.088Z,4.43
2018-07-28T02:27:02.008Z,4.43
2018-07-28T02:29:30.500Z,4.67
2018-07-28T02:31:58.913Z,11.60
2018-07-28T02:34:27.429Z,4.57
2018-07-28T02:36:56.032Z,7.10
2018-07-28T02:39:24.415Z,4.90
2018-07-28T02:41:52.800Z,4.50
2018-07-28T02:44:21.318Z,4.10
2018-07-28T02:46:49.912Z,5.17
2018-07-28T02:49:18.323Z,4.00
2018-07-28T02:51:46.818Z,9.93
2018-07-28T02:54:15.369Z,4.37
2018-07-28T02:56:43.982Z,3.87
2018-07-28T02:59:12.459Z,4.40
2018-07-28T03:01:40.842Z,4.47
2018-07-28T03:04:09.216Z,4.30
2018-07-28T03:06:37.737Z,4.10
2018-07-28T03:09:09.473Z,4.30
2018-07-28T03:11:38.067Z,3.40
2018-07-28T03:14:06.484Z,5.27
2018-07-28T03:16:34.962Z,5.53
2018-07-28T03:19:03.545Z,4.03
2018-07-28T03:21:32.028Z,5.17
2018-07-28T03:24:00.539Z,4.03
2018-07-28T03:26:29.020Z,4.40
2018-07-28T03:28:57.492Z,3.93
2018-07-28T03:31:25.902Z,4.93
2018-07-28T03:33:54.288Z,7.27
2018-07-28T03:36:22.872Z,4.60
2018-07-28T03:38:51.316Z,7.03
2018-07-28T03:41:20.674Z,6.67
2018-07-28T03:43:49.310Z,4.17
2018-07-28T03:46:17.788Z,7.83
2018-07-28T03:48:46.166Z,4.23
2018-07-28T03:51:14.532Z,5.23
2018-07-28T03:53:43.037Z,4.87
2018-07-28T03:56:11.538Z,10.70
2018-07-28T03:58:39.910Z,4.57
2018-07-28T04:01:08.430Z,5.43
2018-07-28T04:03:36.894Z,8.80
2018-07-28T04:06:05.313Z,7.77
2018-07-28T04:08:33.714Z,4.87
2018-07-28T04:11:02.154Z,4.87
2018-07-28T04:13:30.552Z,4.30
2018-07-28T04:15:58.998Z,4.13
2018-07-28T04:18:27.534Z,4.80
2018-07-28T04:20:56.089Z,5.33
2018-07-28T04:23:24.576Z,4.97
2018-07-28T04:25:52.976Z,4.33
2018-07-28T04:28:21.400Z,4.93
2018-07-28T04:30:49.918Z,4.60
2018-07-28T04:33:18.395Z,5.53
2018-07-28T04:35:46.765Z,5.03
2018-07-28T04:38:15.236Z,5.87
2018-07-28T04:40:43.690Z,4.73
2018-07-28T04:43:12.157Z,4.60
2018-07-28T04:45:40.620Z,3.70
2018-07-28T04:48:09.126Z,4.37
2018-07-28T04:50:37.492Z,4.37
2018-07-28T04:53:05.941Z,4.90
2018-07-28T04:55:34.280Z,4.40
2018-07-28T04:58:02.678Z,9.80
2018-07-28T05:00:31.079Z,6.23
2018-07-28T05:02:59.429Z,8.13
2018-07-28T05:05:27.816Z,5.30
2018-07-28T05:07:56.324Z,6.93
2018-07-28T05:10:24.730Z,4.60
2018-07-28T05:12:53.352Z,4.97
2018-07-28T05:15:21.914Z,6.10
2018-07-28T05:17:50.454Z,5.87
2018-07-28T05:20:18.824Z,5.87
2018-07-28T05:22:47.194Z,7.20
2018-07-28T05:25:15.677Z,9.90
2018-07-28T05:27:44.184Z,8.20
2018-07-28T05:30:12.724Z,5.13
2018-07-28T05:32:41.097Z,11.10
2018-07-28T05:35:10.612Z,4.93
2018-07-28T05:37:39.314Z,5.00
2018-07-28T05:40:07.786Z,4.83
2018-07-28T05:42:36.310Z,8.73
2018-07-28T05:45:05.605Z,5.20
2018-07-28T05:47:34.066Z,6.00
2018-07-28T05:50:02.474Z,4.67
2018-07-28T05:52:30.909Z,4.40
2018-07-28T05:54:59.470Z,4.17
2018-07-28T05:57:28.028Z,4.60
2018-07-28T05:59:56.549Z,4.10
2018-07-28T06:02:25.012Z,4.50
2018-07-28T06:04:53.487Z,5.27
2018-07-28T06:07:21.993Z,5.73
2018-07-28T06:09:50.423Z,6.17
2018-07-28T06:12:18.924Z,4.60
2018-07-28T06:14:47.386Z,4.77
2018-07-28T06:17:15.800Z,4.43
2018-07-28T06:19:44.317Z,7.67
2018-07-28T06:22:12.803Z,5.67
2018-07-28T06:24:41.223Z,5.10
2018-07-28T06:27:09.667Z,4.50
2018-07-28T06:29:38.111Z,3.80
2018-07-28T06:32:07.606Z,5.50
2018-07-28T06:34:36.267Z,24.70
2018-07-28T06:37:04.772Z,25.83
2018-07-28T06:39:33.173Z,24.80
2018-07-28T06:42:01.643Z,8.73
2018-07-28T06:44:30.131Z,7.80
2018-07-28T06:46:58.650Z,6.70
2018-07-28T06:49:27.156Z,20.80
2018-07-28T06:51:55.484Z,4.37
2018-07-28T06:54:23.870Z,4.10
2018-07-28T06:56:52.294Z,12.73
2018-07-28T06:59:20.739Z,4.57
2018-07-28T07:01:49.199Z,8.17
2018-07-28T07:04:17.630Z,4.90
2018-07-28T07:06:46.043Z,6.83
2018-07-28T07:09:14.524Z,4.40
2018-07-28T07:11:43.190Z,4.60
2018-07-28T07:14:11.760Z,4.50
2018-07-28T07:16:40.341Z,4.30
2018-07-28T07:19:08.725Z,32.53
2018-07-28T07:21:37.250Z,5.63
2018-07-28T07:24:05.759Z,5.50
2018-07-28T07:26:34.178Z,4.87
2018-07-28T07:29:02.837Z,6.17
2018-07-28T07:31:31.421Z,4.43
2018-07-28T07:33:59.830Z,5.90
2018-07-28T07:36:28.265Z,5.03
2018-07-28T07:38:56.859Z,5.30
2018-07-28T07:41:25.370Z,4.37
2018-07-28T07:43:53.883Z,4.97
2018-07-28T07:46:22.414Z,4.43
2018-07-28T07:48:50.785Z,4.40
2018-07-28T07:51:19.302Z,5.50
2018-07-28T07:53:47.706Z,5.40
2018-07-28T07:56:16.147Z,4.73
2018-07-28T07:58:44.651Z,6.07
2018-07-28T08:01:13.056Z,4.50
2018-07-28T08:03:41.501Z,3.93
2018-07-28T08:06:10.000Z,6.80
2018-07-28T08:08:38.405Z,4.00
2018-07-28T08:11:06.891Z,4.67
2018-07-28T08:13:35.293Z,5.23
2018-07-28T08:16:03.677Z,4.37
2018-07-28T08:18:32.085Z,5.63
2018-07-28T08:21:00.485Z,3.93
2018-07-28T08:23:28.863Z,4.63
2018-07-28T08:25:57.446Z,3.93
2018-07-28T08:28:25.729Z,6.63
2018-07-28T08:30:54.132Z,4.20
2018-07-28T08:33:22.560Z,6.90
2018-07-28T08:35:50.941Z,4.20
2018-07-28T08:38:19.345Z,5.80
2018-07-28T08:40:47.819Z,3.93
2018-07-28T08:43:16.216Z,16.43
2018-07-28T08:45:44.567Z,4.33
2018-07-28T08:48:12.911Z,3.57
2018-07-28T08:50:41.347Z,4.03
2018-07-28T08:53:09.707Z,3.80
2018-07-28T08:55:38.246Z,3.60
2018-07-28T08:58:06.985Z,4.53
2018-07-28T09:00:35.427Z,4.70
2018-07-28T09:03:04.059Z,4.60
2018-07-28T09:05:32.618Z,4.90
2018-07-28T09:08:01.055Z,5.13
2018-07-28T09:10:29.540Z,4.80
2018-07-28T09:12:58.036Z,3.87
2018-07-28T09:15:29.097Z,5.60
2018-07-28T09:17:57.591Z,4.23
2018-07-28T09:20:25.891Z,4.27
2018-07-28T09:22:54.454Z,6.77
2018-07-28T09:25:22.867Z,3.90
2018-07-28T09:27:51.366Z,4.60
2018-07-28T09:30:19.993Z,3.50
2018-07-28T09:32:48.572Z,4.33
2018-07-28T09:35:16.996Z,3.50
2018-07-28T09:37:45.619Z,3.57
2018-07-28T09:40:13.749Z,4.27
2018-07-28T09:42:42.354Z,3.67
2018-07-28T09:45:10.798Z,7.90
2018-07-28T09:47:39.294Z,5.53
2018-07-28T09:50:10.077Z,3.90
2018-07-28T09:52:38.454Z,18.37
2018-07-28T09:55:06.983Z,3.40
2018-07-28T09:57:35.385Z,3.40
2018-07-28T10:00:03.884Z,6.03
2018-07-28T10:02:32.339Z,5.07
2018-07-28T10:05:00.855Z,2.87
2018-07-28T10:07:29.375Z,3.17
2018-07-28T10:09:57.812Z,4.50
2018-07-28T10:12:26.334Z,6.60
2018-07-28T10:14:55.937Z,3.20
2018-07-28T10:17:24.842Z,3.30
2018-07-28T10:19:53.214Z,4.33
2018-07-28T10:22:21.826Z,4.17
2018-07-28T10:24:50.351Z,3.80
2018-07-28T10:27:18.837Z,6.43
2018-07-28T10:29:47.703Z,2.97
2018-07-28T10:32:16.185Z,5.80
2018-07-28T10:34:44.575Z,2.50
2018-07-28T10:37:13.136Z,3.20
2018-07-28T10:39:41.562Z,3.43
2018-07-28T10:42:10.117Z,3.77
2018-07-28T10:44:38.486Z,2.70
2018-07-28T10:47:06.935Z,7.60
2018-07-28T10:49:35.421Z,4.60
2018-07-28T10:52:04.026Z,3.60
2018-07-28T10:54:32.649Z,4.53
2018-07-28T10:57:01.097Z,5.00
2018-07-28T10:59:29.602Z,2.90
2018-07-28T11:01:58.149Z,3.30
2018-07-28T11:04:26.699Z,5.33
2018-07-28T11:06:55.208Z,7.10
2018-07-28T11:09:23.730Z,4.40
2018-07-28T11:11:52.232Z,16.87
2018-07-28T11:14:20.672Z,9.63
2018-07-28T11:16:49.078Z,14.20
2018-07-28T11:19:17.253Z,6.03
2018-07-28T11:21:45.748Z,15.47
2018-07-28T11:24:14.282Z,8.50
2018-07-28T11:26:42.802Z,11.20
2018-07-28T11:29:11.254Z,8.93
2018-07-28T11:31:51.073Z,12.90
2018-07-28T11:34:30.876Z,7.73
2018-07-28T11:37:04.530Z,5.60
2018-07-28T11:39:44.202Z,13.00
2018-07-28T11:42:23.948Z,9.37
2018-07-28T11:45:00.121Z,10.37
2018-07-28T11:47:28.692Z,16.53
2018-07-28T11:49:57.212Z,10.13
2018-07-28T11:52:25.634Z,6.57
2018-07-28T11:54:54.170Z,11.70
2018-07-28T11:57:22.614Z,5.87
2018-07-28T11:59:51.000Z,3.97
2018-07-28T12:02:19.184Z,5.07
2018-07-28T12:04:47.589Z,7.23
2018-07-28T12:07:17.153Z,7.47
2018-07-28T12:09:45.569Z,7.40
2018-07-28T12:12:14.162Z,3.63
2018-07-28T12:14:42.635Z,3.60
2018-07-28T12:17:11.101Z,3.07
2018-07-28T12:19:39.632Z,3.30
2018-07-28T12:22:08.286Z,3.33
2018-07-28T12:24:36.871Z,2.93
2018-07-28T12:27:05.500Z,7.43
2018-07-28T12:29:33.918Z,5.30
2018-07-28T12:32:02.355Z,3.63
2018-07-28T12:34:31.026Z,6.90
2018-07-28T12:36:59.418Z,4.37
2018-07-28T12:39:27.952Z,5.03
2018-07-28T12:41:56.353Z,4.13
2018-07-28T12:44:24.719Z,38.00
2018-07-28T12:46:53.169Z,4.07
2018-07-28T12:49:21.580Z,16.77
2018-07-28T12:51:50.121Z,4.20
2018-07-28T12:54:18.586Z,3.53
2018-07-28T12:56:47.008Z,3.37
2018-07-28T12:59:15.330Z,15.10
2018-07-28T13:01:43.856Z,6.47
2018-07-28T13:04:12.322Z,3.27
2018-07-28T13:06:40.748Z,7.63
2018-07-28T13:09:10.779Z,2.87
2018-07-28T13:11:39.192Z,4.10
2018-07-28T13:14:07.691Z,12.83
2018-07-28T13:16:36.118Z,4.63
2018-07-28T13:19:04.536Z,8.38
2018-07-28T13:21:33.051Z,2.73
2018-07-28T13:24:01.512Z,6.37
2018-07-28T13:26:31.022Z,9.03
2018-07-28T13:28:59.566Z,3.07
2018-07-28T13:31:28.060Z,214.93
2018-07-28T13:33:56.630Z,133.60
2018-07-28T13:36:25.260Z,107.83
2018-07-28T13:38:53.767Z,77.33
2018-07-28T13:41:22.218Z,48.10
2018-07-28T13:43:50.873Z,55.77
2018-07-28T13:46:19.348Z,42.57
2018-07-28T13:48:47.762Z,32.13
2018-07-28T13:51:16.184Z,23.20
2018-07-28T13:53:44.668Z,16.90
2018-07-28T13:56:13.354Z,17.57
2018-07-28T13:58:41.914Z,7.93
2018-07-28T14:01:10.521Z,18.40
2018-07-28T14:03:38.904Z,4.67
2018-07-28T14:06:08.182Z,8.37
2018-07-28T14:08:36.622Z,5.90
2018-07-28T14:11:05.060Z,3.40
2018-07-28T14:13:34.376Z,3.40
2018-07-28T14:16:02.834Z,3.20
2018-07-28T14:18:31.499Z,3.03
2018-07-28T14:20:59.862Z,2.93
2018-07-28T14:23:28.437Z,3.00
2018-07-28T14:25:56.969Z,4.23
2018-07-28T14:28:25.464Z,3.20
2018-07-28T14:30:54.346Z,2.27
2018-07-28T14:33:23.054Z,5.90
2018-07-28T14:35:51.565Z,3.80
2018-07-28T14:38:20.023Z,2.00
2018-07-28T14:40:48.582Z,3.77
2018-07-28T14:43:17.093Z,3.70
2018-07-28T14:45:45.360Z,1.70
2018-07-28T14:48:13.842Z,1.50
2018-07-28T14:50:42.206Z,2.20
2018-07-28T14:53:10.758Z,1.67
2018-07-28T14:55:39.266Z,1.67
2018-07-28T14:58:13.612Z,1.90
2018-07-28T15:00:42.065Z,1.87
2018-07-28T15:03:10.556Z,1.67
2018-07-28T15:05:39.348Z,1.83
2018-07-28T15:08:07.844Z,2.03
2018-07-28T15:10:36.256Z,2.07
2018-07-28T15:13:04.794Z,1.43
2018-07-28T15:15:32.891Z,3.80
2018-07-28T15:18:01.375Z,2.00
2018-07-28T15:20:29.934Z,2.77
2018-07-28T15:22:58.391Z,1.63
2018-07-28T15:25:26.919Z,1.77
2018-07-28T15:27:55.588Z,1.80
2018-07-28T15:30:24.016Z,1.60
2018-07-28T15:32:52.534Z,2.50
2018-07-28T15:35:20.912Z,1.70
2018-07-28T15:37:49.144Z,3.97
2018-07-28T15:40:17.634Z,2.23
2018-07-28T15:42:46.252Z,1.70
2018-07-28T15:45:14.900Z,2.23
2018-07-28T15:47:43.311Z,4.07
2018-07-28T15:50:11.698Z,3.63
2018-07-28T15:52:40.246Z,3.37
2018-07-28T15:55:08.622Z,1.90
2018-07-28T15:57:37.057Z,5.17
2018-07-28T16:00:05.521Z,2.70
2018-07-28T16:02:34.168Z,1.80
2018-07-28T16:05:02.622Z,2.10
2018-07-28T16:07:31.209Z,2.93
2018-07-28T16:09:59.672Z,2.60
2018-07-28T16:12:28.186Z,2.53
2018-07-28T16:14:56.252Z,2.30
2018-07-28T16:17:24.654Z,4.20
2018-07-28T16:19:53.066Z,2.13
2018-07-28T16:22:21.576Z,3.13
2018-07-28T16:24:49.978Z,2.43
2018-07-28T16:27:18.535Z,5.70
2018-07-28T16:29:46.886Z,2.90
2018-07-28T16:32:15.233Z,2.60
2018-07-28T16:34:43.586Z,2.70
2018-07-28T16:37:12.069Z,3.67
2018-07-28T16:39:40.630Z,3.23
2018-07-28T16:42:09.167Z,4.93
2018-07-28T16:44:37.721Z,6.03
2018-07-28T16:47:06.168Z,2.60
2018-07-28T16:49:34.610Z,4.03
2018-07-28T16:52:03.050Z,3.00
2018-07-28T16:54:31.584Z,2.50
2018-07-28T16:57:00.123Z,3.83
2018-07-28T16:59:28.613Z,11.23
2018-07-28T17:01:57.144Z,4.20
2018-07-28T17:04:25.572Z,11.93
2018-07-28T17:06:54.087Z,7.03
2018-07-28T17:09:22.414Z,3.93
2018-07-28T17:11:50.884Z,4.07
2018-07-28T17:14:19.264Z,8.43
2018-07-28T17:16:47.756Z,3.80
2018-07-28T17:19:16.268Z,3.00
2018-07-28T17:21:44.856Z,2.50
2018-07-28T17:24:13.265Z,5.50
2018-07-28T17:26:41.678Z,2.27
2018-07-28T17:29:10.104Z,2.50
2018-07-28T17:31:38.600Z,2.07
2018-07-28T17:34:07.075Z,2.13
2018-07-28T17:36:35.478Z,2.40
2018-07-28T17:39:05.745Z,2.83
2018-07-28T17:41:34.372Z,2.33
2018-07-28T17:44:02.777Z,2.53
2018-07-28T17:46:31.162Z,2.90
2018-07-28T17:48:59.707Z,3.50
2018-07-28T17:51:28.681Z,6.83
2018-07-28T17:53:58.339Z,2.13
2018-07-28T17:56:26.820Z,1.90
2018-07-28T17:58:55.480Z,2.73
2018-07-28T18:01:23.961Z,1.73
2018-07-28T18:03:52.526Z,2.23
2018-07-28T18:06:20.990Z,2.60
2018-07-28T18:08:49.508Z,1.90
2018-07-28T18:11:17.924Z,2.07
2018-07-28T18:13:46.473Z,2.27
2018-07-28T18:16:14.948Z,2.40
2018-07-28T18:18:43.452Z,2.93
2018-07-28T18:21:11.821Z,2.40
2018-07-28T18:23:40.333Z,4.90
2018-07-28T18:26:08.755Z,2.63
2018-07-28T18:28:37.221Z,2.77
2018-07-28T18:31:05.659Z,3.50
2018-07-28T18:33:34.129Z,3.40
2018-07-28T18:36:02.649Z,5.40
2018-07-28T18:38:31.153Z,3.23
2018-07-28T18:40:59.303Z,5.70
2018-07-28T18:43:27.854Z,3.03
2018-07-28T18:45:56.396Z,3.60
2018-07-28T18:48:24.761Z,3.47
2018-07-28T18:50:52.886Z,2.80
2018-07-28T18:53:21.462Z,2.70
2018-07-28T18:55:49.842Z,11.93
2018-07-28T18:58:18.312Z,3.30
2018-07-28T19:00:46.660Z,3.53
2018-07-28T19:03:15.920Z,3.50
2018-07-28T19:05:44.322Z,4.67
2018-07-28T19:08:12.905Z,3.80
2018-07-28T19:10:41.349Z,4.93
2018-07-28T19:13:15.019Z,4.50
2018-07-28T19:15:43.536Z,7.10
2018-07-28T19:18:17.599Z,4.97
2018-07-28T19:20:48.041Z,3.10
2018-07-28T19:23:21.796Z,7.77
2018-07-28T19:25:50.267Z,7.87
2018-07-28T19:28:24.189Z,3.73
2018-07-28T19:30:52.380Z,3.50
2018-07-28T19:33:20.816Z,5.83
2018-07-28T19:35:54.605Z,7.30
2018-07-28T19:38:23.169Z,4.33
2018-07-28T19:40:51.767Z,4.70
2018-07-28T19:43:20.269Z,4.07
2018-07-28T19:45:48.761Z,3.70
2018-07-28T19:48:17.252Z,4.40
2018-07-28T19:50:45.665Z,4.63
2018-07-28T19:53:14.232Z,4.07
2018-07-28T19:55:42.697Z,3.43
2018-07-28T19:58:11.140Z,4.37
2018-07-28T20:00:39.609Z,4.70
2018-07-28T20:03:08.017Z,4.83
2018-07-28T20:05:36.398Z,3.40
2018-07-28T20:08:04.763Z,4.50
2018-07-28T20:10:33.454Z,4.13
2018-07-28T20:13:01.837Z,7.10
2018-07-28T20:15:30.305Z,6.23
2018-07-28T20:17:58.698Z,5.23
2018-07-28T20:20:26.857Z,9.97
2018-07-28T20:22:55.397Z,4.73
2018-07-28T20:25:23.805Z,6.37
2018-07-28T20:27:52.447Z,6.30
2018-07-28T20:30:20.947Z,5.30
2018-07-28T20:32:49.409Z,3.23
2018-07-28T20:35:17.762Z,3.90
2018-07-28T20:37:46.177Z,4.83
2018-07-28T20:40:14.562Z,9.50
2018-07-28T20:42:43.095Z,7.60
2018-07-28T20:45:11.584Z,5.97
2018-07-28T20:47:40.019Z,6.53
2018-07-28T20:50:08.363Z,10.03
2018-07-28T20:52:36.813Z,4.33
2018-07-28T20:55:05.265Z,4.50
2018-07-28T20:57:33.659Z,5.33
2018-07-28T21:00:02.116Z,5.70
2018-07-28T21:02:30.577Z,4.50
2018-07-28T21:04:58.982Z,4.23
2018-07-28T21:07:27.509Z,11.67
2018-07-28T21:09:56.068Z,6.43
2018-07-28T21:12:24.511Z,10.97
2018-07-28T21:14:52.928Z,3.77
2018-07-28T21:17:21.367Z,4.33
2018-07-28T21:19:49.740Z,4.20
2018-07-28T21:22:18.165Z,4.03
2018-07-28T21:24:46.657Z,4.40
2018-07-28T21:27:15.147Z,15.33
2018-07-28T21:29:43.633Z,4.30
2018-07-28T21:32:12.089Z,3.53
2018-07-28T21:34:40.479Z,8.93
2018-07-28T21:37:08.949Z,4.30
2018-07-28T21:39:37.393Z,5.10
2018-07-28T21:42:05.635Z,4.50
2018-07-28T21:44:34.085Z,4.13
2018-07-28T21:47:02.523Z,4.93
2018-07-28T21:49:30.992Z,3.77
2018-07-28T21:51:59.523Z,4.47
2018-07-28T21:54:27.927Z,4.33
2018-07-28T21:56:56.437Z,3.80
2018-07-28T21:59:25.039Z,12.67
2018-07-28T22:01:53.337Z,5.97
2018-07-28T22:04:27.559Z,6.27
2018-07-28T22:06:56.113Z,4.07
2018-07-28T22:09:24.484Z,4.53
2018-07-28T22:11:52.973Z,3.77
2018-07-28T22:14:21.489Z,4.23
2018-07-28T22:16:50.057Z,4.27
2018-07-28T22:19:18.563Z,3.93
2018-07-28T22:21:46.937Z,5.13
2018-07-28T22:24:15.317Z,4.67
2018-07-28T22:26:43.785Z,4.20
2018-07-28T22:29:12.380Z,4.03
2018-07-28T22:31:40.894Z,3.83
2018-07-28T22:34:09.657Z,4.70
2018-07-28T22:36:37.993Z,4.43
2018-07-28T22:39:07.803Z,4.73
2018-07-28T22:41:36.319Z,4.43
2018-07-28T22:44:04.751Z,5.57
2018-07-28T22:46:33.157Z,5.47
2018-07-28T22:49:01.488Z,5.70
2018-07-28T22:51:29.865Z,4.67
2018-07-28T22:53:58.296Z,3.60
2018-07-28T22:56:26.682Z,4.40
2018-07-28T22:58:55.164Z,5.10
2018-07-28T23:01:23.628Z,6.70
2018-07-28T23:03:51.935Z,4.10
2018-07-28T23:06:20.411Z,3.50
2018-07-28T23:08:48.795Z,4.20
2018-07-28T23:11:17.186Z,5.40
2018-07-28T23:13:45.576Z,6.83
2018-07-28T23:16:13.941Z,4.60
2018-07-28T23:18:42.325Z,8.03
2018-07-28T23:21:10.396Z,4.87
2018-07-28T23:23:38.455Z,4.80
2018-07-28T23:26:06.517Z,4.40
2018-07-28T23:28:34.897Z,4.30
2018-07-28T23:31:03.473Z,4.30
2018-07-28T23:33:31.817Z,7.30
2018-07-28T23:36:00.167Z,6.73
2018-07-28T23:38:28.569Z,4.37
2018-07-28T23:40:57.038Z,4.70
2018-07-28T23:43:25.459Z,5.63
2018-07-28T23:45:53.869Z,3.37
2018-07-28T23:48:22.236Z,3.70
2018-07-28T23:50:50.677Z,7.03
2018-07-28T23:53:19.143Z,4.47
2018-07-28T23:55:47.643Z,4.53
2018-07-28T23:58:16.090Z,4.80
